createdAt,value
2018-10-16T00:00:46.181Z,99.90
2018-10-16T00:03:13.843Z,99.90
2018-10-16T00:05:41.387Z,99.90
2018-10-16T00:10:40.023Z,99.90
2018-10-16T00:13:09.268Z,99.90
2018-10-16T00:15:37.563Z,99.90
2018-10-16T00:18:05.417Z,99.90
2018-10-16T00:20:32.980Z,99.90
2018-10-16T00:23:01.589Z,99.90
2018-10-16T00:25:29.100Z,99.90
2018-10-16T00:27:56.660Z,99.90
2018-10-16T00:30:24.190Z,99.90
2018-10-16T00:32:51.800Z,99.90
2018-10-16T00:35:19.339Z,99.90
2018-10-16T00:37:46.864Z,99.90
2018-10-16T00:40:14.383Z,99.90
2018-10-16T00:42:42.052Z,99.90
2018-10-16T00:45:10.736Z,99.90
2018-10-16T00:47:38.305Z,99.90
2018-10-16T00:50:05.836Z,99.90
2018-10-16T00:52:35.456Z,99.90
2018-10-16T00:55:03.089Z,99.90
2018-10-16T00:57:30.583Z,99.90
2018-10-16T00:59:58.108Z,99.90
2018-10-16T01:02:25.663Z,99.90
2018-10-16T01:04:53.177Z,99.90
2018-10-16T01:07:20.707Z,99.90
2018-10-16T01:09:48.263Z,99.90
2018-10-16T01:12:15.884Z,99.90
2018-10-16T01:14:45.607Z,99.90
2018-10-16T01:17:13.111Z,99.90
2018-10-16T01:19:40.651Z,99.90
2018-10-16T01:22:08.231Z,99.90
2018-10-16T01:24:35.756Z,99.90
2018-10-16T01:27:03.280Z,99.90
2018-10-16T01:29:30.964Z,99.90
2018-10-16T01:31:58.636Z,99.90
2018-10-16T01:34:26.352Z,99.90
2018-10-16T01:36:54.056Z,99.90
2018-10-16T01:39:21.728Z,99.90
2018-10-16T01:41:49.432Z,99.90
2018-10-16T01:44:17.076Z,99.90
2018-10-16T01:46:44.756Z,99.90
2018-10-16T01:49:12.539Z,99.90
2018-10-16T01:51:40.216Z,99.90
2018-10-16T01:54:07.844Z,99.90
2018-10-16T01:56:35.395Z,99.90
2018-10-16T01:59:02.916Z,99.90
2018-10-16T02:01:30.492Z,99.90
2018-10-16T02:06:26.512Z,99.90
2018-10-16T02:08:54.079Z,99.90
2018-10-16T02:11:21.607Z,99.90
2018-10-16T02:13:49.223Z,99.90
2018-10-16T02:16:16.733Z,99.90
2018-10-16T02:18:44.303Z,99.90
2018-10-16T02:21:11.875Z,99.90
2018-10-16T02:23:40.491Z,99.90
2018-10-16T02:26:08.056Z,99.90
2018-10-16T02:28:35.656Z,99.90
2018-10-16T02:31:03.200Z,99.90
2018-10-16T02:33:30.839Z,99.90
2018-10-16T02:35:58.404Z,99.90
2018-10-16T02:38:26.019Z,99.90
2018-10-16T02:40:53.537Z,99.90
2018-10-16T02:43:28.444Z,99.90
2018-10-16T02:45:56.002Z,99.90
2018-10-16T02:48:23.583Z,99.90
2018-10-16T02:50:51.150Z,99.90
2018-10-16T02:53:24.443Z,99.90
2018-10-16T02:55:52.005Z,99.90
2018-10-16T02:58:19.591Z,99.90
2018-10-16T03:00:47.115Z,99.90
2018-10-16T03:03:21.992Z,99.90
2018-10-16T03:05:49.504Z,99.90
2018-10-16T03:08:17.091Z,99.90
2018-10-16T03:10:44.592Z,99.90
2018-10-16T03:13:13.324Z,99.90
2018-10-16T03:15:40.831Z,99.90
2018-10-16T03:18:08.407Z,99.90
2018-10-16T03:20:36.168Z,99.90
2018-10-16T03:23:11.372Z,99.90
2018-10-16T03:25:38.960Z,99.90
2018-10-16T03:28:06.532Z,99.90
2018-10-16T03:30:34.167Z,99.90
2018-10-16T03:33:01.816Z,99.90
2018-10-16T03:35:29.409Z,99.90
2018-10-16T03:37:56.975Z,99.90
2018-10-16T03:40:24.560Z,99.90
2018-10-16T03:42:55.171Z,99.90
2018-10-16T03:45:22.743Z,99.90
2018-10-16T03:47:50.288Z,99.90
2018-10-16T03:50:17.919Z,99.90
2018-10-16T03:52:46.552Z,99.90
2018-10-16T03:55:14.087Z,99.90
2018-10-16T03:57:41.600Z,99.90
2018-10-16T04:00:09.478Z,99.90
2018-10-16T04:02:40.535Z,99.90
2018-10-16T04:05:08.048Z,99.90
2018-10-16T04:07:35.613Z,99.90
2018-10-16T04:10:03.220Z,99.90
2018-10-16T04:12:38.340Z,99.90
2018-10-16T04:15:06.579Z,99.90
2018-10-16T04:17:34.087Z,99.90
2018-10-16T04:20:01.669Z,99.90
2018-10-16T04:22:34.873Z,99.90
2018-10-16T04:25:02.320Z,99.90
2018-10-16T04:27:29.931Z,99.90
2018-10-16T04:29:57.508Z,99.90
2018-10-16T04:32:29.219Z,99.90
2018-10-16T04:34:56.740Z,99.90
2018-10-16T04:37:24.305Z,99.90
2018-10-16T04:39:51.855Z,99.90
2018-10-16T04:42:21.505Z,99.90
2018-10-16T04:44:49.007Z,99.90
2018-10-16T04:47:16.603Z,99.90
2018-10-16T04:49:44.219Z,99.90
2018-10-16T04:52:11.775Z,99.90
2018-10-16T04:54:39.307Z,99.90
2018-10-16T04:57:06.883Z,99.90
2018-10-16T04:59:34.460Z,99.90
2018-10-16T05:02:02.080Z,99.90
2018-10-16T05:04:30.720Z,99.90
2018-10-16T05:06:58.304Z,99.90
2018-10-16T05:09:25.851Z,99.90
2018-10-16T05:11:54.477Z,99.90
2018-10-16T05:14:22.143Z,99.90
2018-10-16T05:16:49.782Z,99.90
2018-10-16T05:19:17.374Z,99.90
2018-10-16T05:21:44.843Z,99.90
2018-10-16T05:24:14.371Z,99.90
2018-10-16T05:26:41.939Z,99.90
2018-10-16T05:29:10.463Z,99.90
2018-10-16T05:31:38.193Z,99.90
2018-10-16T05:34:06.316Z,99.90
2018-10-16T05:36:34.014Z,99.90
2018-10-16T05:39:01.617Z,99.90
2018-10-16T05:41:29.105Z,99.90
2018-10-16T05:44:15.149Z,99.90
2018-10-16T05:46:42.691Z,99.90
2018-10-16T05:49:10.382Z,99.90
2018-10-16T05:51:38.112Z,99.90
2018-10-16T05:54:09.383Z,99.90
2018-10-16T05:56:36.998Z,99.90
2018-10-16T05:59:04.716Z,99.90
2018-10-16T06:01:32.440Z,99.90
2018-10-16T06:04:17.225Z,99.90
2018-10-16T06:06:44.971Z,99.90
2018-10-16T06:09:12.722Z,99.90
2018-10-16T06:11:40.402Z,99.90
2018-10-16T06:14:08.129Z,99.90
2018-10-16T06:16:35.800Z,99.90
2018-10-16T06:19:03.443Z,99.90
2018-10-16T06:21:31.213Z,99.90
2018-10-16T06:24:09.759Z,99.90
2018-10-16T06:26:37.504Z,99.90
2018-10-16T06:29:05.293Z,99.90
2018-10-16T06:31:32.959Z,99.90
2018-10-16T06:34:04.236Z,99.90
2018-10-16T06:36:31.933Z,99.90
2018-10-16T06:38:59.624Z,99.90
2018-10-16T06:41:27.326Z,99.90
2018-10-16T06:44:02.393Z,99.90
2018-10-16T06:46:30.158Z,99.90
2018-10-16T06:48:57.868Z,99.90
2018-10-16T06:51:25.393Z,99.90
2018-10-16T06:54:00.684Z,99.90
2018-10-16T06:56:28.367Z,99.90
2018-10-16T06:58:56.060Z,99.90
2018-10-16T07:01:23.700Z,99.90
2018-10-16T07:03:52.495Z,99.90
2018-10-16T07:06:20.173Z,99.90
2018-10-16T07:08:47.884Z,99.90
2018-10-16T07:11:15.412Z,99.90
2018-10-16T07:13:42.940Z,99.90
2018-10-16T07:16:10.474Z,99.90
2018-10-16T07:18:38.003Z,99.90
2018-10-16T07:21:05.630Z,99.90
2018-10-16T07:23:40.240Z,99.90
2018-10-16T07:26:07.813Z,99.90
2018-10-16T07:28:35.373Z,99.90
2018-10-16T07:31:03.083Z,99.90
2018-10-16T07:33:39.240Z,99.90
2018-10-16T07:36:06.907Z,99.90
2018-10-16T07:38:34.655Z,99.90
2018-10-16T07:41:02.267Z,99.90
2018-10-16T07:43:34.190Z,99.90
2018-10-16T07:46:01.877Z,99.90
2018-10-16T07:48:29.655Z,99.90
2018-10-16T07:50:57.219Z,99.90
2018-10-16T07:53:26.914Z,99.90
2018-10-16T07:55:54.694Z,99.90
2018-10-16T07:58:22.348Z,99.90
2018-10-16T08:00:49.985Z,99.90
2018-10-16T08:03:24.892Z,99.90
2018-10-16T08:10:47.300Z,99.90
2018-10-16T08:13:19.253Z,99.90
2018-10-16T08:15:47.589Z,99.90
2018-10-16T08:18:15.315Z,99.90
2018-10-16T08:20:43.028Z,99.90
2018-10-16T08:23:14.143Z,99.90
2018-10-16T08:25:41.804Z,99.90
2018-10-16T08:28:09.448Z,99.90
2018-10-16T08:30:37.175Z,99.90
2018-10-16T08:33:07.926Z,99.90
2018-10-16T08:35:35.626Z,99.90
2018-10-16T08:38:06.760Z,99.90
2018-10-16T08:40:34.564Z,99.90
2018-10-16T08:43:18.701Z,99.90
2018-10-16T08:45:51.969Z,99.90
2018-10-16T08:48:25.252Z,99.90
2018-10-16T08:53:28.152Z,99.90
2018-10-16T08:55:55.867Z,99.90
2018-10-16T08:58:23.551Z,99.90
2018-10-16T09:03:19.669Z,99.90
2018-10-16T09:05:47.370Z,99.90
2018-10-16T09:08:15.144Z,99.90
2018-10-16T09:10:42.816Z,99.90
2018-10-16T09:13:27.481Z,99.90
2018-10-16T09:15:55.163Z,99.90
2018-10-16T09:18:22.737Z,99.90
2018-10-16T09:20:50.506Z,99.90
2018-10-16T09:23:18.187Z,99.90
2018-10-16T09:25:45.907Z,99.90
2018-10-16T09:28:13.529Z,99.90
2018-10-16T09:30:41.190Z,99.90
2018-10-16T09:33:11.130Z,99.90
2018-10-16T09:35:38.861Z,99.90
2018-10-16T09:38:06.638Z,99.90
2018-10-16T09:40:34.249Z,99.90
2018-10-16T09:45:36.998Z,99.90
2018-10-16T09:48:04.786Z,99.90
2018-10-16T09:50:32.446Z,99.90
2018-10-16T09:53:00.240Z,99.90
2018-10-16T09:55:27.960Z,99.90
2018-10-16T09:57:55.647Z,99.90
2018-10-16T10:00:28.585Z,99.90
2018-10-16T10:02:57.396Z,99.90
2018-10-16T10:05:25.093Z,99.90
2018-10-16T10:10:20.222Z,99.90
2018-10-16T10:12:48.036Z,99.90
2018-10-16T10:15:15.817Z,99.90
2018-10-16T10:17:43.577Z,99.90
2018-10-16T10:22:39.681Z,99.90
2018-10-16T10:25:07.401Z,99.90
2018-10-16T10:27:35.312Z,99.90
2018-10-16T10:30:03.252Z,99.90
2018-10-16T10:35:00.136Z,99.90
2018-10-16T10:37:27.908Z,99.90
2018-10-16T10:39:55.641Z,99.90
2018-10-16T10:42:24.397Z,99.90
2018-10-16T10:44:52.149Z,99.90
2018-10-16T10:47:19.816Z,99.90
2018-10-16T10:52:14.881Z,99.90
2018-10-16T10:54:42.545Z,99.90
2018-10-16T10:59:37.665Z,99.90
2018-10-16T11:02:05.545Z,99.90
2018-10-16T11:07:01.273Z,99.90
2018-10-16T11:09:28.964Z,99.90
2018-10-16T11:11:57.343Z,99.90
2018-10-16T11:14:28.184Z,99.90
2018-10-16T11:16:55.720Z,99.90
2018-10-16T11:19:23.606Z,99.90
2018-10-16T11:21:51.689Z,99.90
2018-10-16T11:29:21.129Z,99.90
2018-10-16T11:31:48.656Z,97.10
2018-10-16T11:34:19.617Z,95.70
2018-10-16T11:36:47.241Z,98.70
2018-10-16T11:39:14.874Z,99.00
2018-10-16T11:41:42.339Z,98.10
2018-10-16T11:44:11.627Z,99.90
2018-10-16T11:46:39.255Z,99.90
2018-10-16T11:49:07.300Z,99.90
2018-10-16T11:51:35.196Z,99.90
2018-10-16T11:54:13.918Z,93.00
2018-10-16T11:56:41.622Z,99.90
2018-10-16T11:59:09.319Z,99.90
2018-10-16T12:01:36.996Z,99.90
2018-10-16T12:06:35.621Z,99.90
2018-10-16T12:14:09.169Z,99.90
2018-10-16T12:19:16.430Z,96.30
2018-10-16T12:24:34.187Z,99.90
2018-10-16T12:27:01.996Z,96.30
2018-10-16T12:29:29.646Z,99.90
2018-10-16T12:31:57.462Z,98.40
2018-10-16T12:34:25.337Z,93.70
2018-10-16T12:36:53.093Z,93.60
2018-10-16T12:39:20.861Z,91.80
2018-10-16T12:41:48.526Z,99.90
2018-10-16T12:49:18.537Z,82.20
2018-10-16T12:51:46.225Z,88.90
2018-10-16T12:54:15.061Z,89.00
2018-10-16T12:56:42.723Z,89.10
2018-10-16T12:59:10.502Z,87.70
2018-10-16T13:01:38.105Z,87.30
2018-10-16T13:04:07.245Z,99.90
2018-10-16T13:06:34.938Z,98.70
2018-10-16T13:09:02.696Z,91.60
2018-10-16T13:14:02.967Z,99.90
2018-10-16T13:16:30.597Z,99.90
2018-10-16T13:18:58.249Z,99.90
2018-10-16T13:21:25.891Z,90.20
2018-10-16T13:24:12.812Z,90.30
2018-10-16T13:26:40.381Z,86.40
2018-10-16T13:31:35.196Z,92.60
2018-10-16T13:34:14.377Z,83.00
2018-10-16T13:36:41.861Z,90.60
2018-10-16T13:39:09.427Z,82.50
2018-10-16T13:41:36.971Z,92.80
2018-10-16T13:46:32.819Z,90.10
2018-10-16T13:49:00.403Z,83.20
2018-10-16T13:51:27.967Z,82.00
2018-10-16T13:56:23.910Z,78.20
2018-10-16T13:58:51.525Z,86.10
2018-10-16T14:03:52.019Z,77.40
2018-10-16T14:11:14.263Z,67.80
2018-10-16T14:13:41.892Z,69.20
2018-10-16T14:18:36.828Z,97.30
2018-10-16T14:21:04.492Z,94.60
2018-10-16T14:23:32.265Z,93.00
2018-10-16T14:30:54.888Z,64.70
2018-10-16T14:35:53.612Z,63.40
2018-10-16T14:38:21.342Z,65.70
2018-10-16T14:43:17.534Z,66.20
2018-10-16T14:48:12.803Z,97.90
2018-10-16T14:55:35.213Z,66.90
2018-10-16T14:58:02.968Z,71.30
2018-10-16T15:00:30.633Z,73.10
2018-10-16T15:02:59.476Z,90.20
2018-10-16T15:05:27.112Z,97.00
2018-10-16T15:07:54.868Z,94.90
2018-10-16T15:12:58.092Z,99.90
2018-10-16T15:15:25.837Z,99.90
2018-10-16T15:20:21.001Z,93.40
2018-10-16T15:22:52.489Z,94.30
2018-10-16T15:25:20.156Z,92.40
2018-10-16T15:27:47.902Z,93.70
2018-10-16T15:30:15.637Z,99.20
2018-10-16T15:35:11.474Z,90.10
2018-10-16T15:37:39.508Z,78.60
2018-10-16T15:40:07.879Z,80.80
2018-10-16T15:45:12.112Z,90.70
2018-10-16T15:47:40.552Z,95.10
2018-10-16T15:50:08.680Z,99.90
2018-10-16T15:52:40.122Z,97.90
2018-10-16T15:55:08.825Z,93.70
2018-10-16T16:02:32.531Z,94.80
2018-10-16T16:05:00.160Z,92.30
2018-10-16T16:09:55.286Z,93.40
2018-10-16T16:12:27.579Z,94.30
2018-10-16T16:14:55.333Z,94.90
2018-10-16T16:17:23.012Z,96.30
2018-10-16T16:22:22.486Z,98.00
2018-10-16T16:27:17.632Z,99.90
2018-10-16T16:29:45.292Z,99.90
2018-10-16T16:34:40.694Z,99.90
2018-10-16T16:37:08.402Z,99.90
2018-10-16T16:39:36.209Z,99.90
2018-10-16T16:42:03.983Z,99.90
2018-10-16T16:44:35.766Z,99.90
2018-10-16T16:47:03.407Z,99.90
2018-10-16T16:49:31.009Z,99.90
2018-10-16T16:51:58.630Z,99.90
2018-10-16T16:54:27.196Z,99.90
2018-10-16T16:56:54.897Z,99.90
2018-10-16T16:59:22.414Z,99.90
2018-10-16T17:01:50.051Z,99.90
2018-10-16T17:09:13.261Z,99.90
2018-10-16T17:11:40.844Z,99.90
2018-10-16T17:14:10.441Z,99.90
2018-10-16T17:16:37.988Z,99.90
2018-10-16T17:19:05.544Z,99.90
2018-10-16T17:21:33.120Z,99.90
2018-10-16T17:24:00.708Z,99.90
2018-10-16T17:26:28.294Z,99.90
2018-10-16T17:28:55.936Z,99.90
2018-10-16T17:31:23.644Z,99.90
2018-10-16T17:36:19.835Z,99.90
2018-10-16T17:41:14.852Z,99.90
2018-10-16T17:43:42.692Z,99.90
2018-10-16T17:46:10.467Z,99.90
2018-10-16T17:48:38.084Z,99.90
2018-10-16T17:51:05.750Z,99.90
2018-10-16T17:53:33.489Z,99.90
2018-10-16T17:58:28.524Z,99.90
2018-10-16T18:00:56.235Z,99.90
2018-10-16T18:03:23.891Z,99.90
2018-10-16T18:05:51.572Z,99.90
2018-10-16T18:08:19.264Z,99.90
2018-10-16T18:10:47.011Z,99.90
2018-10-16T18:13:14.789Z,99.90
2018-10-16T18:15:42.493Z,99.90
2018-10-16T18:18:10.214Z,99.90
2018-10-16T18:20:37.920Z,99.90
2018-10-16T18:23:05.661Z,99.90
2018-10-16T18:25:33.403Z,99.90
2018-10-16T18:28:01.079Z,99.90
2018-10-16T18:30:28.700Z,99.90
2018-10-16T18:32:56.390Z,99.90
2018-10-16T18:35:23.946Z,99.90
2018-10-16T18:40:18.792Z,99.90
2018-10-16T18:43:13.901Z,99.90
2018-10-16T18:45:41.512Z,99.90
2018-10-16T18:48:09.217Z,99.90
2018-10-16T18:50:36.956Z,99.90
2018-10-16T18:53:04.931Z,99.90
2018-10-16T18:55:32.578Z,99.90
2018-10-16T18:58:00.232Z,99.90
2018-10-16T19:00:27.923Z,99.90
2018-10-16T19:02:57.650Z,99.90
2018-10-16T19:05:25.356Z,99.90
2018-10-16T19:07:53.079Z,99.90
2018-10-16T19:10:20.786Z,99.90
2018-10-16T19:13:01.376Z,99.90
2018-10-16T19:15:29.389Z,99.90
2018-10-16T19:17:57.076Z,99.90
2018-10-16T19:20:24.744Z,99.90
2018-10-16T19:22:52.484Z,99.90
2018-10-16T19:25:20.776Z,99.90
2018-10-16T19:27:48.466Z,99.90
2018-10-16T19:30:16.160Z,99.90
2018-10-16T19:32:56.629Z,99.90
2018-10-16T19:35:24.348Z,99.90
2018-10-16T19:37:52.126Z,99.90
2018-10-16T19:40:19.799Z,99.90
2018-10-16T19:43:00.901Z,99.90
2018-10-16T19:45:28.689Z,99.90
2018-10-16T19:47:56.304Z,99.90
2018-10-16T19:50:24.037Z,99.90
2018-10-16T19:53:00.248Z,99.90
2018-10-16T19:55:27.913Z,99.90
2018-10-16T19:57:55.579Z,99.90
2018-10-16T20:00:23.283Z,99.90
2018-10-16T20:02:58.819Z,99.90
2018-10-16T20:05:26.449Z,99.90
2018-10-16T20:07:54.007Z,99.90
2018-10-16T20:10:21.520Z,99.90
2018-10-16T20:12:49.171Z,99.90
2018-10-16T20:15:16.787Z,99.90
2018-10-16T20:17:44.319Z,99.90
2018-10-16T20:20:12.827Z,99.90
2018-10-16T20:22:40.459Z,99.90
2018-10-16T20:25:08.373Z,99.90
2018-10-16T20:27:36.064Z,99.90
2018-10-16T20:30:03.791Z,99.90
2018-10-16T20:32:31.528Z,99.90
2018-10-16T20:34:59.048Z,99.90
2018-10-16T20:37:26.620Z,99.90
2018-10-16T20:39:54.272Z,99.90
2018-10-16T20:42:29.585Z,99.90
2018-10-16T20:44:57.196Z,99.90
2018-10-16T20:47:24.878Z,99.90
2018-10-16T20:49:52.532Z,99.90
2018-10-16T20:52:20.240Z,99.90
2018-10-16T20:54:47.904Z,99.90
2018-10-16T20:57:15.603Z,99.90
2018-10-16T20:59:43.448Z,99.90
2018-10-16T21:02:11.260Z,99.90
2018-10-16T21:04:38.923Z,99.90
2018-10-16T21:07:06.862Z,99.90
2018-10-16T21:09:34.320Z,99.90
2018-10-16T21:12:01.921Z,99.90
2018-10-16T21:14:50.671Z,99.90
2018-10-16T21:17:18.203Z,99.90
2018-10-16T21:19:45.712Z,99.90
2018-10-16T21:22:15.329Z,99.90
2018-10-16T21:24:42.928Z,99.90
2018-10-16T21:27:11.620Z,99.90
2018-10-16T21:29:39.412Z,99.90
2018-10-16T21:32:07.668Z,99.90
2018-10-16T21:34:35.340Z,99.90
2018-10-16T21:37:03.150Z,99.90
2018-10-16T21:39:31.668Z,99.90
2018-10-16T21:41:59.215Z,99.90
2018-10-16T21:44:27.904Z,99.90
2018-10-16T21:46:55.495Z,99.90
2018-10-16T21:49:23.660Z,99.90
2018-10-16T21:51:51.728Z,99.90
2018-10-16T21:54:20.476Z,99.90
2018-10-16T21:56:48.112Z,99.90
2018-10-16T21:59:16.083Z,99.90
2018-10-16T22:01:49.020Z,99.90
2018-10-16T22:04:24.755Z,99.90
2018-10-16T22:06:52.441Z,99.90
2018-10-16T22:09:20.148Z,99.90
2018-10-16T22:11:47.795Z,99.90
2018-10-16T22:14:15.536Z,99.90
2018-10-16T22:16:43.194Z,99.90
2018-10-16T22:19:10.947Z,99.90
2018-10-16T22:21:38.564Z,99.90
2018-10-16T22:24:06.244Z,99.90
2018-10-16T22:26:33.942Z,99.90
2018-10-16T22:29:01.930Z,99.90
2018-10-16T22:31:29.604Z,99.90
2018-10-16T22:33:57.568Z,99.90
2018-10-16T22:36:25.563Z,99.90
2018-10-16T22:38:53.344Z,99.90
2018-10-16T22:41:21.112Z,99.90
2018-10-16T22:43:49.900Z,99.90
2018-10-16T22:46:17.609Z,99.90
2018-10-16T22:48:45.288Z,99.90
2018-10-16T22:51:13.000Z,99.90
2018-10-16T22:57:01.776Z,99.90
2018-10-16T22:59:29.492Z,99.90
2018-10-16T23:01:57.176Z,99.90
2018-10-16T23:04:24.855Z,99.90
2018-10-16T23:06:52.532Z,99.90
2018-10-16T23:09:20.276Z,99.90
2018-10-16T23:11:47.980Z,99.90
2018-10-16T23:14:23.864Z,99.90
2018-10-16T23:16:51.598Z,99.90
2018-10-16T23:19:19.280Z,99.90
2018-10-16T23:21:46.974Z,99.90
2018-10-16T23:24:18.723Z,99.90
2018-10-16T23:26:46.316Z,99.90
2018-10-16T23:29:13.966Z,99.90
2018-10-16T23:31:41.517Z,99.90
2018-10-16T23:34:17.512Z,99.90
2018-10-16T23:36:45.128Z,99.90
2018-10-16T23:39:14.063Z,99.90
2018-10-16T23:41:42.373Z,99.90
2018-10-16T23:44:11.800Z,99.90
2018-10-16T23:46:39.511Z,99.90
2018-10-16T23:49:07.720Z,99.90
2018-10-16T23:51:35.540Z,99.90
2018-10-16T23:54:10.768Z,99.90
2018-10-16T23:56:38.331Z,99.90
2018-10-16T23:59:05.941Z,99.90
